createdAt,value
2023-05-02T00:02:18.712Z,26.33
2023-05-02T00:04:46.995Z,25.40
2023-05-02T00:07:15.429Z,23.23
2023-05-02T00:09:43.726Z,21.53
2023-05-02T00:12:11.886Z,21.13
2023-05-02T00:14:39.989Z,19.93
2023-05-02T00:17:08.289Z,20.57
2023-05-02T00:19:40.973Z,17.97
2023-05-02T00:22:09.226Z,18.07
2023-05-02T00:24:37.466Z,17.27
2023-05-02T00:27:06.220Z,15.03
2023-05-02T00:29:34.461Z,17.93
2023-05-02T00:32:02.905Z,17.67
2023-05-02T00:34:31.734Z,16.03
2023-05-02T00:37:01.466Z,16.20
2023-05-02T00:39:29.667Z,14.20
2023-05-02T00:41:58.682Z,12.60
2023-05-02T00:44:26.971Z,12.90
2023-05-02T00:46:55.876Z,12.37
2023-05-02T00:49:24.822Z,12.77
2023-05-02T00:51:54.351Z,12.70
2023-05-02T00:54:24.136Z,12.40
2023-05-02T00:56:52.424Z,12.53
2023-05-02T00:59:21.234Z,11.43
2023-05-02T01:02:06.675Z,13.57
2023-05-02T01:04:51.617Z,12.30
2023-05-02T01:07:37.042Z,12.77
2023-05-02T01:10:20.563Z,12.20
2023-05-02T01:12:57.834Z,11.60
2023-05-02T01:15:26.722Z,11.00
2023-05-02T01:17:57.269Z,11.80
2023-05-02T01:20:30.244Z,10.93
2023-05-02T01:23:11.519Z,12.10
2023-05-02T01:26:02.352Z,11.97
2023-05-02T01:28:48.243Z,12.23
2023-05-02T01:31:17.776Z,13.67
2023-05-02T01:33:48.999Z,13.30
2023-05-02T01:36:18.509Z,13.63
2023-05-02T01:38:47.892Z,13.90
2023-05-02T01:41:17.177Z,15.43
2023-05-02T01:43:48.196Z,14.07
2023-05-02T01:46:16.792Z,14.73
2023-05-02T01:48:49.619Z,15.60
2023-05-02T01:51:19.962Z,14.27
2023-05-02T01:53:50.933Z,14.47
2023-05-02T01:56:21.444Z,14.20
2023-05-02T01:58:54.134Z,13.50
2023-05-02T02:01:24.939Z,14.10
2023-05-02T02:03:55.880Z,14.10
2023-05-02T02:06:25.330Z,13.93
2023-05-02T02:08:53.587Z,12.70
2023-05-02T02:11:28.538Z,10.40
2023-05-02T02:14:06.085Z,10.50
2023-05-02T02:16:39.101Z,10.90
2023-05-02T02:19:11.455Z,10.60
2023-05-02T02:21:41.591Z,10.80
2023-05-02T02:24:11.122Z,8.27
2023-05-02T02:26:39.491Z,8.17
2023-05-02T02:29:10.732Z,6.70
2023-05-02T02:31:39.872Z,7.20
2023-05-02T02:34:08.704Z,5.50
2023-05-02T02:36:46.129Z,5.60
2023-05-02T02:39:29.470Z,5.23
2023-05-02T02:42:15.298Z,5.83
2023-05-02T02:44:56.221Z,6.23
2023-05-02T02:47:32.835Z,5.70
2023-05-02T02:50:17.740Z,6.57
2023-05-02T02:52:56.669Z,6.67
2023-05-02T02:55:38.566Z,7.30
2023-05-02T02:58:21.182Z,6.47
2023-05-02T03:00:51.781Z,6.47
2023-05-02T03:03:25.045Z,6.00
2023-05-02T03:05:53.350Z,7.10
2023-05-02T03:08:21.962Z,7.80
2023-05-02T03:10:50.222Z,7.83
2023-05-02T03:13:18.817Z,7.47
2023-05-02T03:16:35.176Z,9.30
2023-05-02T03:19:05.006Z,7.80
2023-05-02T03:21:34.505Z,7.73
2023-05-02T03:24:11.021Z,7.37
2023-05-02T03:26:39.358Z,8.80
2023-05-02T03:29:10.831Z,6.13
2023-05-02T03:31:44.037Z,7.47
2023-05-02T03:34:13.710Z,7.63
2023-05-02T03:36:43.089Z,6.30
2023-05-02T03:39:12.319Z,5.93
2023-05-02T03:41:42.401Z,4.50
2023-05-02T03:44:13.488Z,6.00
2023-05-02T03:46:43.405Z,4.07
2023-05-02T03:49:13.685Z,5.07
2023-05-02T03:51:44.688Z,4.20
2023-05-02T03:54:14.181Z,4.07
2023-05-02T03:56:45.052Z,3.33
2023-05-02T03:59:22.510Z,4.03
2023-05-02T04:01:52.743Z,3.63
2023-05-02T04:04:26.180Z,3.80
2023-05-02T04:06:56.264Z,3.40
2023-05-02T04:09:25.559Z,3.47
2023-05-02T04:12:20.074Z,3.37
2023-05-02T04:14:51.110Z,4.03
2023-05-02T04:17:22.067Z,3.60
2023-05-02T04:19:51.582Z,3.90
2023-05-02T04:22:22.006Z,3.03
2023-05-02T04:24:54.818Z,3.20
2023-05-02T04:27:23.830Z,4.27
2023-05-02T04:29:53.393Z,3.87
2023-05-02T04:32:23.372Z,4.37
2023-05-02T04:34:52.124Z,5.43
2023-05-02T04:37:21.789Z,5.20
2023-05-02T04:39:51.550Z,5.40
2023-05-02T04:42:24.303Z,3.83
2023-05-02T04:45:02.073Z,5.23
2023-05-02T04:47:31.800Z,4.77
2023-05-02T04:50:01.464Z,5.43
2023-05-02T04:52:31.079Z,5.40
2023-05-02T04:55:00.783Z,5.50
2023-05-02T04:57:29.630Z,5.30
2023-05-02T05:00:01.054Z,6.20
2023-05-02T05:02:31.544Z,7.57
2023-05-02T05:05:02.062Z,6.90
2023-05-02T05:07:30.533Z,6.30
2023-05-02T05:09:59.534Z,4.57
2023-05-02T05:12:31.673Z,4.90
2023-05-02T05:15:00.270Z,5.10
2023-05-02T05:17:31.444Z,4.40
2023-05-02T05:20:00.794Z,5.40
2023-05-02T05:22:29.212Z,7.30
2023-05-02T05:24:57.511Z,5.47
2023-05-02T05:27:30.380Z,4.50
2023-05-02T05:29:59.290Z,5.67
2023-05-02T05:32:29.061Z,4.80
2023-05-02T05:34:58.695Z,3.50
2023-05-02T05:37:28.836Z,4.70
2023-05-02T05:39:59.144Z,5.00
2023-05-02T05:42:27.558Z,5.13
2023-05-02T05:45:00.642Z,5.03
2023-05-02T05:47:29.257Z,5.23
2023-05-02T05:50:00.848Z,6.40
2023-05-02T05:52:31.381Z,6.33
2023-05-02T05:55:02.072Z,3.60
2023-05-02T05:57:31.080Z,3.83
2023-05-02T05:59:59.577Z,4.13
2023-05-02T06:02:28.007Z,4.63
2023-05-02T06:04:57.384Z,3.70
2023-05-02T06:07:28.496Z,3.50
2023-05-02T06:09:56.680Z,5.60
2023-05-02T06:12:24.892Z,3.70
2023-05-02T06:14:53.696Z,3.10
2023-05-02T06:17:22.795Z,3.30
2023-05-02T06:19:51.352Z,3.40
2023-05-02T06:22:19.611Z,3.83
2023-05-02T06:24:49.069Z,4.50
2023-05-02T06:27:17.589Z,4.30
2023-05-02T06:29:45.637Z,3.13
2023-05-02T06:32:13.837Z,2.50
2023-05-02T06:34:41.873Z,2.77
2023-05-02T06:37:10.189Z,3.10
2023-05-02T06:39:38.383Z,3.20
2023-05-02T06:42:07.918Z,3.23
2023-05-02T06:44:36.712Z,5.40
2023-05-02T06:47:06.342Z,4.97
2023-05-02T06:49:34.734Z,3.77
2023-05-02T06:52:02.838Z,3.07
2023-05-02T06:54:31.071Z,3.17
2023-05-02T06:57:00.449Z,3.33
2023-05-02T06:59:29.928Z,2.37
2023-05-02T07:01:58.070Z,2.90
2023-05-02T07:04:27.722Z,3.67
2023-05-02T07:06:56.021Z,2.53
2023-05-02T07:09:24.251Z,2.97
2023-05-02T07:11:52.325Z,3.37
2023-05-02T07:14:20.957Z,3.43
2023-05-02T07:16:54.391Z,2.53
2023-05-02T07:19:22.539Z,2.27
2023-05-02T07:21:50.681Z,2.00
2023-05-02T07:24:18.924Z,2.20
2023-05-02T07:26:47.120Z,2.10
2023-05-02T07:29:15.265Z,2.57
2023-05-02T07:31:43.628Z,2.77
2023-05-02T07:34:13.208Z,2.80
2023-05-02T07:36:41.403Z,2.47
2023-05-02T07:39:10.474Z,2.20
2023-05-02T07:41:38.695Z,2.07
2023-05-02T07:44:06.959Z,2.03
2023-05-02T07:46:35.307Z,2.10
2023-05-02T07:49:06.251Z,2.13
2023-05-02T07:51:35.793Z,2.10
2023-05-02T07:54:04.076Z,1.90
2023-05-02T07:56:32.798Z,2.00
2023-05-02T07:59:00.868Z,2.43
2023-05-02T08:01:30.045Z,2.17
2023-05-02T08:03:58.434Z,2.47
2023-05-02T08:06:26.821Z,1.73
2023-05-02T08:08:56.340Z,1.57
2023-05-02T08:11:25.512Z,1.90
2023-05-02T08:13:53.888Z,2.33
2023-05-02T08:16:22.982Z,2.20
2023-05-02T08:18:51.130Z,2.20
2023-05-02T08:21:19.313Z,2.30
2023-05-02T08:23:47.447Z,1.80
2023-05-02T08:26:19.230Z,1.43
2023-05-02T08:28:47.814Z,2.20
2023-05-02T08:31:18.850Z,2.13
2023-05-02T08:33:47.210Z,2.33
2023-05-02T08:36:17.387Z,2.20
2023-05-02T08:38:46.779Z,2.10
2023-05-02T08:41:19.100Z,1.90
2023-05-02T08:43:50.432Z,2.80
2023-05-02T08:46:19.169Z,2.40
2023-05-02T08:48:49.103Z,3.10
2023-05-02T08:53:48.116Z,3.27
2023-05-02T08:56:17.607Z,14.07
2023-05-02T08:58:45.965Z,2.20
2023-05-02T09:01:18.208Z,2.83
2023-05-02T09:03:48.371Z,2.57
2023-05-02T09:06:19.041Z,2.10
2023-05-02T09:08:49.954Z,2.90
2023-05-02T09:11:21.409Z,2.70
2023-05-02T09:13:51.029Z,2.33
2023-05-02T09:16:22.757Z,2.23
2023-05-02T09:18:52.364Z,2.93
2023-05-02T09:21:22.489Z,2.30
2023-05-02T09:23:53.120Z,2.23
2023-05-02T09:26:24.896Z,2.10
2023-05-02T09:28:54.484Z,2.53
2023-05-02T09:31:49.611Z,2.80
2023-05-02T09:34:18.279Z,2.13
2023-05-02T09:36:48.403Z,2.20
2023-05-02T09:39:18.865Z,2.77
2023-05-02T09:41:50.871Z,2.20
2023-05-02T09:44:20.851Z,2.13
2023-05-02T09:46:54.203Z,2.73
2023-05-02T09:49:41.931Z,2.47
2023-05-02T09:52:14.526Z,2.70
2023-05-02T09:54:43.085Z,2.83
2023-05-02T09:57:12.710Z,2.70
2023-05-02T09:59:41.829Z,2.77
2023-05-02T10:02:12.044Z,2.77
2023-05-02T10:04:41.918Z,2.50
2023-05-02T10:07:11.536Z,2.23
2023-05-02T10:09:45.899Z,2.37
2023-05-02T10:12:17.655Z,2.70
2023-05-02T10:14:51.542Z,2.67
2023-05-02T10:17:29.523Z,2.67
2023-05-02T10:20:02.140Z,3.03
2023-05-02T10:22:31.722Z,2.83
2023-05-02T10:25:02.189Z,2.10
2023-05-02T10:27:33.822Z,2.50
2023-05-02T10:30:04.352Z,2.77
2023-05-02T10:32:35.327Z,2.90
2023-05-02T10:35:06.629Z,2.40
2023-05-02T10:37:39.441Z,3.07
2023-05-02T10:40:12.416Z,2.60
2023-05-02T10:42:46.683Z,2.30
2023-05-02T10:45:33.339Z,2.40
2023-05-02T10:48:20.200Z,2.70
2023-05-02T10:50:51.272Z,2.67
2023-05-02T10:53:31.640Z,2.57
2023-05-02T10:56:22.282Z,2.70
2023-05-02T10:58:53.485Z,3.00
2023-05-02T11:01:36.979Z,3.10
2023-05-02T11:04:07.696Z,3.00
2023-05-02T11:06:37.362Z,2.80
2023-05-02T11:09:34.367Z,2.93
2023-05-02T11:12:04.889Z,3.70
2023-05-02T11:14:55.188Z,3.33
2023-05-02T11:17:23.428Z,2.53
2023-05-02T11:20:26.057Z,2.60
2023-05-02T11:22:56.463Z,2.70
2023-05-02T11:25:33.501Z,3.07
2023-05-02T11:28:02.711Z,2.80
2023-05-02T11:30:48.657Z,3.00
2023-05-02T11:33:21.973Z,3.00
2023-05-02T11:35:51.992Z,3.70
2023-05-02T11:38:23.738Z,3.43
2023-05-02T11:41:00.312Z,3.43
2023-05-02T11:43:32.851Z,3.30
2023-05-02T11:46:07.760Z,3.10
2023-05-02T11:48:46.126Z,3.40
2023-05-02T11:51:27.036Z,2.93
2023-05-02T11:53:59.040Z,2.90
2023-05-02T11:56:32.142Z,3.30
2023-05-02T11:59:06.694Z,3.27
2023-05-02T12:01:36.583Z,3.03
2023-05-02T12:04:12.050Z,3.03
2023-05-02T12:06:55.603Z,3.10
2023-05-02T12:09:24.798Z,3.57
2023-05-02T12:11:59.395Z,3.13
2023-05-02T12:14:35.968Z,3.30
2023-05-02T12:17:07.418Z,3.43
2023-05-02T12:19:37.944Z,3.50
2023-05-02T12:22:07.894Z,3.27
2023-05-02T12:24:43.570Z,3.33
2023-05-02T12:27:24.683Z,2.90
2023-05-02T12:29:54.154Z,3.50
2023-05-02T12:32:45.335Z,3.30
2023-05-02T12:35:30.598Z,3.13
2023-05-02T12:38:16.275Z,3.80
2023-05-02T12:40:57.667Z,3.23
2023-05-02T12:43:26.031Z,3.20
2023-05-02T12:46:13.876Z,3.40
2023-05-02T12:48:44.920Z,3.53
2023-05-02T12:51:28.539Z,3.20
2023-05-02T12:53:56.953Z,3.33
2023-05-02T12:56:27.700Z,3.30
2023-05-02T12:58:56.105Z,3.50
2023-05-02T13:01:24.433Z,3.40
2023-05-02T13:03:54.043Z,3.53
2023-05-02T13:06:22.317Z,4.03
2023-05-02T13:08:50.566Z,4.40
2023-05-02T13:11:21.781Z,3.87
2023-05-02T13:13:50.013Z,4.13
2023-05-02T13:16:18.488Z,4.23
2023-05-02T13:18:48.145Z,3.80
2023-05-02T13:21:20.243Z,3.67
2023-05-02T13:23:50.473Z,4.37
2023-05-02T13:26:18.671Z,3.57
2023-05-02T13:28:46.828Z,3.83
2023-05-02T13:31:15.250Z,4.10
2023-05-02T13:33:43.504Z,4.00
2023-05-02T13:36:18.839Z,3.80
2023-05-02T13:38:47.649Z,4.73
2023-05-02T13:41:15.776Z,3.50
2023-05-02T13:43:43.929Z,4.20
2023-05-02T13:46:13.335Z,5.27
2023-05-02T13:48:47.005Z,4.10
2023-05-02T13:51:15.184Z,4.60
2023-05-02T13:53:44.706Z,4.30
2023-05-02T13:56:12.959Z,4.00
2023-05-02T13:58:41.239Z,4.50
2023-05-02T14:01:09.770Z,4.70
2023-05-02T14:03:38.255Z,4.20
2023-05-02T14:06:06.733Z,4.60
2023-05-02T14:08:34.985Z,4.37
2023-05-02T14:11:09.412Z,4.80
2023-05-02T14:13:40.316Z,5.00
2023-05-02T14:16:09.035Z,4.40
2023-05-02T14:18:37.417Z,4.83
2023-05-02T14:21:06.357Z,4.67
2023-05-02T14:23:35.327Z,4.40
2023-05-02T14:26:12.669Z,4.50
2023-05-02T14:28:41.295Z,4.70
2023-05-02T14:31:09.743Z,5.23
2023-05-02T14:33:37.971Z,5.20
2023-05-02T14:36:06.816Z,5.10
2023-05-02T14:38:35.122Z,4.47
2023-05-02T14:41:05.962Z,6.90
2023-05-02T14:43:35.781Z,5.13
2023-05-02T14:46:04.213Z,5.10
2023-05-02T14:48:32.389Z,5.00
2023-05-02T14:51:04.106Z,4.63
2023-05-02T14:53:32.502Z,5.67
2023-05-02T14:56:00.757Z,4.70
2023-05-02T14:58:30.244Z,5.83
2023-05-02T15:00:58.529Z,5.30
2023-05-02T15:03:26.803Z,5.33
2023-05-02T15:05:55.270Z,4.50
2023-05-02T15:08:23.548Z,5.00
2023-05-02T15:10:51.889Z,5.67
2023-05-02T15:13:20.283Z,4.97
2023-05-02T15:15:49.847Z,4.80
2023-05-02T15:18:18.027Z,4.47
2023-05-02T15:20:46.320Z,4.80
2023-05-02T15:23:14.808Z,5.47
2023-05-02T15:25:42.958Z,4.70
2023-05-02T15:28:11.277Z,5.20
2023-05-02T15:30:39.635Z,4.43
2023-05-02T15:33:09.326Z,4.27
2023-05-02T15:35:37.875Z,4.43
2023-05-02T15:38:07.009Z,4.57
2023-05-02T15:40:35.647Z,3.97
2023-05-02T15:43:03.828Z,4.70
2023-05-02T15:45:32.369Z,4.33
2023-05-02T15:48:01.104Z,4.97
2023-05-02T15:50:30.649Z,4.97
2023-05-02T15:52:58.868Z,5.67
2023-05-02T15:55:27.147Z,5.13
2023-05-02T15:57:55.459Z,5.63
2023-05-02T16:00:26.191Z,7.10
2023-05-02T16:02:55.585Z,6.60
2023-05-02T16:05:23.858Z,5.53
2023-05-02T16:07:54.052Z,5.27
2023-05-02T16:10:22.724Z,5.40
2023-05-02T16:12:50.995Z,4.73
2023-05-02T16:15:19.190Z,5.67
2023-05-02T16:17:48.834Z,5.83
2023-05-02T16:20:17.814Z,5.10
2023-05-02T16:22:46.869Z,5.67
2023-05-02T16:25:18.678Z,6.20
2023-05-02T16:27:46.822Z,6.43
2023-05-02T16:30:17.511Z,7.40
2023-05-02T16:32:45.826Z,5.97
2023-05-02T16:35:15.963Z,6.03
2023-05-02T16:37:44.479Z,5.50
2023-05-02T16:40:13.632Z,8.03
2023-05-02T16:42:45.137Z,5.87
2023-05-02T16:45:13.386Z,5.60
2023-05-02T16:47:44.203Z,5.83
2023-05-02T16:50:12.726Z,5.07
2023-05-02T16:52:40.962Z,5.33
2023-05-02T16:55:09.931Z,6.50
2023-05-02T16:57:39.113Z,6.73
2023-05-02T17:00:14.825Z,5.40
2023-05-02T17:02:43.144Z,5.37
2023-05-02T17:05:12.281Z,5.97
2023-05-02T17:07:40.502Z,5.93
2023-05-02T17:10:11.219Z,5.40
2023-05-02T17:12:40.379Z,4.73
2023-05-02T17:15:11.393Z,4.90
2023-05-02T17:17:39.803Z,5.50
2023-05-02T17:20:10.063Z,5.17
2023-05-02T17:22:41.651Z,5.40
2023-05-02T17:25:11.183Z,4.80
2023-05-02T17:27:41.079Z,5.50
2023-05-02T17:30:15.200Z,5.10
2023-05-02T17:32:43.767Z,5.73
2023-05-02T17:35:14.854Z,5.37
2023-05-02T17:37:42.994Z,5.83
2023-05-02T17:40:12.689Z,5.20
2023-05-02T17:42:43.522Z,4.40
2023-05-02T17:45:17.967Z,5.33
2023-05-02T17:47:46.194Z,5.10
2023-05-02T17:50:14.398Z,4.97
2023-05-02T17:52:42.684Z,5.37
2023-05-02T17:55:13.973Z,5.07
2023-05-02T17:57:42.221Z,4.37
2023-05-02T18:00:12.127Z,5.20
2023-05-02T18:02:44.041Z,5.20
2023-05-02T18:05:12.832Z,4.83
2023-05-02T18:07:41.012Z,4.00
2023-05-02T18:10:10.160Z,4.30
2023-05-02T18:12:38.334Z,4.10
2023-05-02T18:15:09.414Z,4.33
2023-05-02T18:17:38.194Z,3.73
2023-05-02T18:20:10.221Z,4.30
2023-05-02T18:22:39.116Z,4.17
2023-05-02T18:25:08.593Z,3.90
2023-05-02T18:27:36.822Z,4.07
2023-05-02T18:30:09.868Z,4.10
2023-05-02T18:32:42.579Z,3.90
2023-05-02T18:35:12.761Z,3.33
2023-05-02T18:37:41.328Z,3.67
2023-05-02T18:40:13.379Z,3.57
2023-05-02T18:42:47.340Z,3.87
2023-05-02T18:45:20.459Z,3.40
2023-05-02T18:47:49.447Z,2.80
2023-05-02T18:50:23.384Z,2.80
2023-05-02T18:52:53.504Z,3.50
2023-05-02T18:55:25.444Z,4.00
2023-05-02T18:57:55.753Z,2.30
2023-05-02T19:00:25.876Z,2.97
2023-05-02T19:02:57.211Z,2.77
2023-05-02T19:05:28.726Z,2.50
2023-05-02T19:08:00.702Z,2.73
2023-05-02T19:10:31.013Z,2.80
2023-05-02T19:12:59.680Z,2.13
2023-05-02T19:15:28.094Z,2.80
2023-05-02T19:18:01.513Z,2.80
2023-05-02T19:20:33.463Z,2.77
2023-05-02T19:23:18.282Z,3.00
2023-05-02T19:25:50.513Z,2.53
2023-05-02T19:28:23.606Z,2.70
2023-05-02T19:30:57.688Z,2.97
2023-05-02T19:33:25.954Z,2.50
2023-05-02T19:35:58.530Z,2.90
2023-05-02T19:38:31.256Z,2.90
2023-05-02T19:41:02.844Z,3.00
2023-05-02T19:43:31.286Z,3.10
2023-05-02T19:45:59.871Z,2.53
2023-05-02T19:48:28.297Z,2.40
2023-05-02T19:50:57.895Z,2.80
2023-05-02T19:53:26.815Z,3.00
2023-05-02T19:55:54.925Z,3.20
2023-05-02T19:58:31.651Z,2.80
2023-05-02T20:01:01.164Z,2.57
2023-05-02T20:03:29.501Z,2.93
2023-05-02T20:05:59.099Z,3.00
2023-05-02T20:08:28.221Z,2.57
2023-05-02T20:10:57.903Z,2.53
2023-05-02T20:13:26.037Z,2.63
2023-05-02T20:15:55.187Z,2.50
2023-05-02T20:18:23.334Z,2.43
2023-05-02T20:20:51.531Z,3.17
2023-05-02T20:23:21.091Z,2.67
2023-05-02T20:25:49.284Z,3.80
2023-05-02T20:28:17.480Z,3.23
2023-05-02T20:30:45.682Z,3.23
2023-05-02T20:33:16.090Z,3.30
2023-05-02T20:35:45.076Z,2.90
2023-05-02T20:38:13.366Z,2.83
2023-05-02T20:40:43.629Z,3.77
2023-05-02T20:43:12.517Z,3.87
2023-05-02T20:45:40.762Z,3.80
2023-05-02T20:48:09.220Z,3.20
2023-05-02T20:50:40.664Z,3.50
2023-05-02T20:53:09.212Z,3.40
2023-05-02T20:55:37.471Z,3.40
2023-05-02T20:58:06.982Z,3.47
2023-05-02T21:00:35.534Z,3.50
2023-05-02T21:03:07.036Z,3.80
2023-05-02T21:05:35.249Z,3.13
2023-05-02T21:08:03.582Z,3.37
2023-05-02T21:10:31.902Z,3.40
2023-05-02T21:13:00.065Z,3.10
2023-05-02T21:15:30.079Z,3.03
2023-05-02T21:18:02.357Z,3.20
2023-05-02T21:20:30.660Z,3.40
2023-05-02T21:22:58.903Z,2.97
2023-05-02T21:25:27.494Z,3.97
2023-05-02T21:27:57.525Z,3.40
2023-05-02T21:30:25.795Z,3.60
2023-05-02T21:32:55.334Z,3.40
2023-05-02T21:35:23.516Z,3.10
2023-05-02T21:37:51.650Z,2.90
2023-05-02T21:40:22.563Z,2.87
2023-05-02T21:42:51.113Z,3.10
2023-05-02T21:45:19.384Z,2.30
2023-05-02T21:47:47.636Z,2.60
2023-05-02T21:50:17.161Z,2.80
2023-05-02T21:52:47.514Z,2.70
2023-05-02T21:55:17.936Z,2.50
2023-05-02T21:57:46.116Z,2.60
2023-05-02T22:00:17.303Z,2.67
2023-05-02T22:02:45.986Z,3.20
2023-05-02T22:05:17.999Z,3.17
2023-05-02T22:07:53.294Z,2.43
2023-05-02T22:10:22.064Z,2.87
2023-05-02T22:12:53.019Z,2.90
2023-05-02T22:15:21.169Z,3.27
2023-05-02T22:17:50.645Z,3.10
2023-05-02T22:20:20.213Z,3.23
2023-05-02T22:22:48.652Z,3.30
2023-05-02T22:25:16.807Z,2.97
2023-05-02T22:27:50.219Z,3.43
2023-05-02T22:30:18.519Z,3.30
2023-05-02T22:32:48.773Z,3.53
2023-05-02T22:35:18.054Z,3.63
2023-05-02T22:37:47.590Z,3.03
2023-05-02T22:40:16.508Z,3.17
2023-05-02T22:42:44.953Z,3.53
2023-05-02T22:45:13.816Z,3.07
2023-05-02T22:47:44.180Z,3.20
2023-05-02T22:50:16.018Z,3.60
2023-05-02T22:52:49.336Z,3.20
2023-05-02T22:55:18.000Z,3.67
2023-05-02T22:57:46.289Z,2.80
2023-05-02T23:00:15.338Z,3.27
2023-05-02T23:02:45.886Z,3.40
2023-05-02T23:05:14.247Z,2.87
2023-05-02T23:07:42.680Z,3.33
2023-05-02T23:10:15.312Z,3.07
2023-05-02T23:12:46.208Z,3.30
2023-05-02T23:15:14.452Z,3.10
2023-05-02T23:17:42.785Z,3.50
2023-05-02T23:20:19.415Z,3.00
2023-05-02T23:22:47.715Z,3.30
2023-05-02T23:25:17.227Z,3.80
2023-05-02T23:27:45.615Z,4.00
2023-05-02T23:30:14.254Z,3.60
2023-05-02T23:32:42.621Z,3.93
2023-05-02T23:35:12.813Z,4.40
2023-05-02T23:37:42.103Z,4.83
2023-05-02T23:40:11.345Z,3.90
2023-05-02T23:42:41.302Z,4.13
2023-05-02T23:45:11.072Z,4.57
2023-05-02T23:47:39.810Z,5.13
2023-05-02T23:50:11.869Z,3.60
2023-05-02T23:52:40.592Z,4.37
2023-05-02T23:55:11.450Z,4.40
2023-05-02T23:57:41.438Z,4.63
